sensor_id;sensor_type;location;lat;lon;timestamp;P1;durP1;ratioP1;P2;durP2;ratioP2
56419;SDS011;42323;52.170;7.538;2023-03-23T09:04:00;6.15;;;1.70;;
56419;SDS011;42323;52.170;7.538;2023-03-23T09:06:25;4.95;;;1.65;;
56419;SDS011;42323;52.170;7.538;2023-03-23T09:11:33;5.00;;;1.90;;
56419;SDS011;42323;52.170;7.538;2023-03-23T09:19:18;3.33;;;1.90;;
56419;SDS011;42323;52.170;7.538;2023-03-23T09:21:43;3.85;;;1.42;;
56419;SDS011;42323;52.170;7.538;2023-03-23T09:24:10;2.83;;;1.58;;
56419;SDS011;42323;52.170;7.538;2023-03-23T09:26:36;4.20;;;2.15;;
56419;SDS011;42323;52.170;7.538;2023-03-23T09:29:01;2.58;;;1.70;;
56419;SDS011;42323;52.170;7.538;2023-03-23T09:31:27;6.10;;;3.40;;
56419;SDS011;42323;52.170;7.538;2023-03-23T09:33:53;1.75;;;1.40;;
56419;SDS011;42323;52.170;7.538;2023-03-23T09:36:21;4.00;;;1.63;;
56419;SDS011;42323;52.170;7.538;2023-03-23T09:38:48;2.00;;;1.30;;
56419;SDS011;42323;52.170;7.538;2023-03-23T09:47:25;1.77;;;1.30;;
56419;SDS011;42323;52.170;7.538;2023-03-23T09:53:09;2.22;;;1.40;;
56419;SDS011;42323;52.170;7.538;2023-03-23T09:55:39;2.08;;;1.45;;
56419;SDS011;42323;52.170;7.538;2023-03-23T09:58:23;2.45;;;1.33;;
56419;SDS011;42323;52.170;7.538;2023-03-23T10:01:14;2.83;;;1.90;;
56419;SDS011;42323;52.170;7.538;2023-03-23T10:03:43;4.15;;;1.40;;
56419;SDS011;42323;52.170;7.538;2023-03-23T10:06:11;4.18;;;1.20;;
56419;SDS011;42323;52.170;7.538;2023-03-23T10:08:46;1.63;;;1.10;;
56419;SDS011;42323;52.170;7.538;2023-03-23T10:16:15;1.58;;;1.05;;
56419;SDS011;42323;52.170;7.538;2023-03-23T10:21:21;2.03;;;1.10;;
56419;SDS011;42323;52.170;7.538;2023-03-23T10:24:08;1.23;;;1.13;;
56419;SDS011;42323;52.170;7.538;2023-03-23T10:29:07;1.10;;;1.00;;
56419;SDS011;42323;52.170;7.538;2023-03-23T10:32:08;1.20;;;1.10;;
56419;SDS011;42323;52.170;7.538;2023-03-23T10:37:30;3.75;;;1.17;;
56419;SDS011;42323;52.170;7.538;2023-03-23T10:40:02;1.47;;;1.17;;
56419;SDS011;42323;52.170;7.538;2023-03-23T10:42:35;2.63;;;1.30;;
56419;SDS011;42323;52.170;7.538;2023-03-23T10:45:36;3.30;;;1.25;;
56419;SDS011;42323;52.170;7.538;2023-03-23T10:47:59;1.33;;;1.08;;
56419;SDS011;42323;52.170;7.538;2023-03-23T10:50:34;2.40;;;1.00;;
56419;SDS011;42323;52.170;7.538;2023-03-23T10:53:03;1.23;;;0.98;;
56419;SDS011;42323;52.170;7.538;2023-03-23T10:55:40;1.42;;;1.13;;
56419;SDS011;42323;52.170;7.538;2023-03-23T10:58:13;1.92;;;1.17;;
56419;SDS011;42323;52.170;7.538;2023-03-23T11:00:58;1.98;;;0.80;;
56419;SDS011;42323;52.170;7.538;2023-03-23T11:03:44;1.25;;;1.15;;
56419;SDS011;42323;52.170;7.538;2023-03-23T11:06:20;2.30;;;1.10;;
56419;SDS011;42323;52.170;7.538;2023-03-23T11:08:54;5.53;;;1.00;;
56419;SDS011;42323;52.170;7.538;2023-03-23T11:11:26;4.10;;;1.00;;
56419;SDS011;42323;52.170;7.538;2023-03-23T11:14:13;3.33;;;1.10;;
56419;SDS011;42323;52.170;7.538;2023-03-23T11:17:01;1.37;;;1.00;;
56419;SDS011;42323;52.170;7.538;2023-03-23T11:19:31;1.85;;;0.70;;
56419;SDS011;42323;52.170;7.538;2023-03-23T11:24:31;1.63;;;1.00;;
56419;SDS011;42323;52.170;7.538;2023-03-23T11:26:59;1.17;;;0.80;;
56419;SDS011;42323;52.170;7.538;2023-03-23T11:29:26;2.08;;;0.95;;
56419;SDS011;42323;52.170;7.538;2023-03-23T11:32:01;2.17;;;0.80;;
56419;SDS011;42323;52.170;7.538;2023-03-23T11:37:01;2.00;;;0.80;;
56419;SDS011;42323;52.170;7.538;2023-03-23T11:39:31;2.40;;;0.90;;
56419;SDS011;42323;52.170;7.538;2023-03-23T11:42:11;3.08;;;1.20;;
56419;SDS011;42323;52.170;7.538;2023-03-23T11:44:43;2.80;;;1.63;;
56419;SDS011;42323;52.170;7.538;2023-03-23T11:47:20;4.68;;;1.40;;
56419;SDS011;42323;52.170;7.538;2023-03-23T11:50:12;1.35;;;1.00;;
56419;SDS011;42323;52.170;7.538;2023-03-23T13:10:33;1.35;;;0.70;;
56419;SDS011;42323;52.170;7.538;2023-03-23T13:13:04;3.40;;;1.20;;
56419;SDS011;42323;52.170;7.538;2023-03-23T13:18:13;2.60;;;1.10;;
56419;SDS011;42323;52.170;7.538;2023-03-23T13:25:52;2.20;;;0.93;;
56419;SDS011;42323;52.170;7.538;2023-03-23T13:28:21;2.72;;;1.02;;
56419;SDS011;42323;52.170;7.538;2023-03-23T13:33:28;4.07;;;1.90;;
56419;SDS011;42323;52.170;7.538;2023-03-23T13:35:55;2.38;;;1.10;;
56419;SDS011;42323;52.170;7.538;2023-03-23T13:38:25;3.00;;;1.20;;
56419;SDS011;42323;52.170;7.538;2023-03-23T13:40:53;2.83;;;1.10;;
56419;SDS011;42323;52.170;7.538;2023-03-23T13:43:30;3.80;;;1.17;;
56419;SDS011;42323;52.170;7.538;2023-03-23T13:49:03;2.20;;;1.00;;
56419;SDS011;42323;52.170;7.538;2023-03-23T13:54:14;2.28;;;0.98;;
56419;SDS011;42323;52.170;7.538;2023-03-23T13:56:59;1.88;;;1.15;;
56419;SDS011;42323;52.170;7.538;2023-03-23T14:01:55;2.73;;;1.13;;
56419;SDS011;42323;52.170;7.538;2023-03-23T14:04:23;1.92;;;1.00;;
56419;SDS011;42323;52.170;7.538;2023-03-23T14:06:56;1.48;;;0.90;;
56419;SDS011;42323;52.170;7.538;2023-03-23T14:09:25;2.17;;;0.90;;
56419;SDS011;42323;52.170;7.538;2023-03-23T14:12:00;2.35;;;0.90;;
56419;SDS011;42323;52.170;7.538;2023-03-23T14:14:38;2.92;;;1.20;;
56419;SDS011;42323;52.170;7.538;2023-03-23T14:17:07;2.08;;;0.95;;
56419;SDS011;42323;52.170;7.538;2023-03-23T14:19:38;2.35;;;1.45;;
56419;SDS011;42323;52.170;7.538;2023-03-23T14:22:14;2.08;;;0.80;;
56419;SDS011;42323;52.170;7.538;2023-03-23T14:24:47;2.67;;;1.10;;
56419;SDS011;42323;52.170;7.538;2023-03-23T14:29:45;3.42;;;1.02;;
56419;SDS011;42323;52.170;7.538;2023-03-23T14:32:22;2.78;;;1.00;;
56419;SDS011;42323;52.170;7.538;2023-03-23T14:34:51;3.13;;;1.48;;
56419;SDS011;42323;52.170;7.538;2023-03-23T14:37:17;2.80;;;1.15;;
56419;SDS011;42323;52.170;7.538;2023-03-23T14:39:44;2.45;;;1.23;;
56419;SDS011;42323;52.170;7.538;2023-03-23T14:42:15;4.80;;;1.60;;
56419;SDS011;42323;52.170;7.538;2023-03-23T14:44:47;2.25;;;1.35;;
56419;SDS011;42323;52.170;7.538;2023-03-23T14:49:52;2.47;;;1.35;;
56419;SDS011;42323;52.170;7.538;2023-03-23T14:52:22;1.63;;;1.17;;
56419;SDS011;42323;52.170;7.538;2023-03-23T14:54:50;2.05;;;1.33;;
56419;SDS011;42323;52.170;7.538;2023-03-23T14:57:18;3.42;;;1.50;;
56419;SDS011;42323;52.170;7.538;2023-03-23T14:59:51;4.30;;;1.55;;
56419;SDS011;42323;52.170;7.538;2023-03-23T15:02:18;3.03;;;1.50;;
56419;SDS011;42323;52.170;7.538;2023-03-23T15:05:16;2.42;;;1.48;;
56419;SDS011;42323;52.170;7.538;2023-03-23T15:07:50;2.78;;;1.80;;
56419;SDS011;42323;52.170;7.538;2023-03-23T15:10:20;4.68;;;1.83;;
56419;SDS011;42323;52.170;7.538;2023-03-23T15:12:48;3.85;;;2.15;;
56419;SDS011;42323;52.170;7.538;2023-03-23T15:17:48;4.27;;;1.93;;
56419;SDS011;42323;52.170;7.538;2023-03-23T15:20:57;4.32;;;2.08;;
56419;SDS011;42323;52.170;7.538;2023-03-23T23:25:06;7.43;;;2.72;;
56419;SDS011;42323;52.170;7.538;2023-03-23T23:28:13;5.32;;;2.70;;
56419;SDS011;42323;52.170;7.538;2023-03-23T23:34:02;4.50;;;2.40;;
56419;SDS011;42323;52.170;7.538;2023-03-23T23:36:36;5.63;;;2.40;;
